createdAt,value
2019-05-09T00:00:07.208Z,10.87
2019-05-09T00:05:11.008Z,10.83
2019-05-09T00:10:14.808Z,10.81
2019-05-09T00:15:18.783Z,10.74
2019-05-09T00:20:28.009Z,10.65
2019-05-09T00:25:31.461Z,10.63
2019-05-09T00:30:54.116Z,10.63
2019-05-09T00:35:57.580Z,10.54
2019-05-09T00:41:03.707Z,10.57
2019-05-09T00:46:07.908Z,10.55
2019-05-09T00:51:11.395Z,10.60
2019-05-09T00:56:15.670Z,10.63
2019-05-09T01:01:19.471Z,10.67
2019-05-09T01:06:23.969Z,10.71
2019-05-09T01:11:27.669Z,10.69
2019-05-09T01:16:33.301Z,10.71
2019-05-09T01:21:37.136Z,10.74
2019-05-09T01:26:40.591Z,10.72
2019-05-09T01:31:44.024Z,10.74
2019-05-09T01:37:07.123Z,10.70
2019-05-09T01:42:10.867Z,10.76
2019-05-09T01:47:14.335Z,10.69
2019-05-09T01:52:19.322Z,10.70
2019-05-09T01:57:24.414Z,10.65
2019-05-09T02:02:27.898Z,10.63
2019-05-09T02:07:33.225Z,10.53
2019-05-09T02:12:36.737Z,10.56
2019-05-09T02:17:57.792Z,10.54
2019-05-09T02:22:50.297Z,10.52
2019-05-09T02:27:55.259Z,10.51
2019-05-09T02:32:58.832Z,10.44
2019-05-09T02:38:02.292Z,10.44
2019-05-09T02:43:10.227Z,10.44
2019-05-09T02:48:14.784Z,10.42
2019-05-09T02:53:19.042Z,10.41
2019-05-09T02:58:24.175Z,10.43
2019-05-09T03:03:29.402Z,10.43
2019-05-09T03:08:33.018Z,10.36
2019-05-09T03:13:39.424Z,10.33
2019-05-09T03:18:41.872Z,10.32
2019-05-09T03:23:45.387Z,10.29
2019-05-09T03:28:53.008Z,10.31
2019-05-09T03:33:59.476Z,10.27
2019-05-09T03:39:01.726Z,10.22
2019-05-09T03:44:07.306Z,10.17
2019-05-09T03:49:12.186Z,10.13
2019-05-09T03:54:18.145Z,10.11
2019-05-09T03:59:20.827Z,10.06
2019-05-09T04:04:24.287Z,9.97
2019-05-09T04:09:27.723Z,9.97
2019-05-09T04:14:32.969Z,10.02
2019-05-09T04:19:38.064Z,9.98
2019-05-09T04:24:41.603Z,9.96
2019-05-09T04:29:45.252Z,9.88
2019-05-09T04:34:48.712Z,9.88
2019-05-09T04:39:53.971Z,9.96
2019-05-09T04:45:03.572Z,9.94
2019-05-09T04:50:07.684Z,9.97
2019-05-09T04:55:12.051Z,9.93
2019-05-09T05:00:18.539Z,10.08
2019-05-09T05:05:21.995Z,10.04
2019-05-09T05:10:27.353Z,10.12
2019-05-09T05:15:30.636Z,10.14
2019-05-09T05:20:35.034Z,10.24
2019-05-09T05:25:38.430Z,10.35
2019-05-09T05:30:41.890Z,10.38
2019-05-09T05:35:48.021Z,10.37
2019-05-09T05:40:51.497Z,10.47
2019-05-09T05:45:59.144Z,10.44
2019-05-09T05:51:02.603Z,10.42
2019-05-09T05:56:08.389Z,10.37
2019-05-09T06:01:11.213Z,10.43
2019-05-09T06:06:14.674Z,10.47
2019-05-09T06:11:18.117Z,10.57
2019-05-09T06:16:22.364Z,10.66
2019-05-09T06:21:28.097Z,10.75
2019-05-09T06:26:33.446Z,11.01
2019-05-09T06:31:37.626Z,10.99
2019-05-09T06:36:41.141Z,11.04
2019-05-09T06:41:44.568Z,11.03
2019-05-09T06:46:55.597Z,11.12
2019-05-09T06:51:59.013Z,11.23
2019-05-09T06:57:02.568Z,11.40
2019-05-09T07:02:08.339Z,11.57
2019-05-09T07:07:19.303Z,11.96
2019-05-09T07:12:22.754Z,12.26
2019-05-09T07:17:31.832Z,12.63
2019-05-09T07:22:33.030Z,12.81
2019-05-09T07:27:39.098Z,13.05
2019-05-09T07:32:49.769Z,13.14
2019-05-09T07:37:53.201Z,13.46
2019-05-09T07:42:58.344Z,13.73
2019-05-09T07:48:02.504Z,13.94
2019-05-09T07:53:08.586Z,14.19
2019-05-09T07:58:14.219Z,14.57
2019-05-09T08:03:18.125Z,14.78
2019-05-09T08:08:21.444Z,14.91
2019-05-09T08:13:24.885Z,15.41
2019-05-09T08:18:28.372Z,15.84
2019-05-09T08:23:31.806Z,16.04
2019-05-09T08:28:35.216Z,16.33
2019-05-09T08:33:38.633Z,15.89
2019-05-09T08:38:42.095Z,16.31
2019-05-09T08:43:48.082Z,16.71
2019-05-09T08:48:50.766Z,16.69
2019-05-09T08:53:54.251Z,16.84
2019-05-09T08:59:01.811Z,17.27
2019-05-09T09:04:02.823Z,17.69
2019-05-09T09:09:08.106Z,17.72
2019-05-09T09:14:11.683Z,17.95
2019-05-09T09:19:15.113Z,18.24
2019-05-09T09:24:18.652Z,18.62
2019-05-09T09:29:22.816Z,18.58
2019-05-09T09:34:29.387Z,18.86
2019-05-09T09:39:31.489Z,18.87
2019-05-09T09:44:34.862Z,19.20
2019-05-09T09:49:38.753Z,19.15
2019-05-09T09:54:42.489Z,19.71
2019-05-09T09:59:48.409Z,20.18
2019-05-09T10:04:55.041Z,20.33
2019-05-09T10:09:58.595Z,20.11
2019-05-09T10:15:03.656Z,19.53
2019-05-09T10:20:18.723Z,19.16
2019-05-09T10:25:22.160Z,19.97
2019-05-09T10:30:34.491Z,20.20
2019-05-09T10:35:39.258Z,19.90
2019-05-09T10:40:42.902Z,20.31
2019-05-09T10:45:57.805Z,19.73
2019-05-09T10:51:05.084Z,19.94
2019-05-09T10:56:08.713Z,20.90
2019-05-09T11:01:11.911Z,20.83
2019-05-09T11:06:18.016Z,20.13
2019-05-09T11:11:20.646Z,20.26
2019-05-09T11:16:38.052Z,21.12
2019-05-09T11:21:29.309Z,20.49
2019-05-09T11:26:32.765Z,20.93
2019-05-09T11:31:38.367Z,21.28
2019-05-09T11:36:41.399Z,20.52
2019-05-09T11:41:44.837Z,20.54
2019-05-09T11:46:48.264Z,20.06
2019-05-09T11:51:51.695Z,20.03
2019-05-09T11:56:57.443Z,19.82
2019-05-09T12:02:00.281Z,20.17
2019-05-09T12:07:03.707Z,21.39
2019-05-09T12:12:07.150Z,21.26
2019-05-09T12:17:10.630Z,20.93
2019-05-09T12:22:14.256Z,21.01
2019-05-09T12:27:18.916Z,20.60
2019-05-09T12:32:22.437Z,20.80
2019-05-09T12:37:28.019Z,20.44
2019-05-09T12:42:31.007Z,20.57
2019-05-09T12:47:34.473Z,20.54
2019-05-09T12:52:39.172Z,20.17
2019-05-09T12:57:42.878Z,20.25
2019-05-09T13:02:46.328Z,21.32
2019-05-09T13:08:10.567Z,22.25
2019-05-09T13:13:13.999Z,22.25
2019-05-09T13:18:22.841Z,22.24
2019-05-09T13:23:22.753Z,21.40
2019-05-09T13:28:26.315Z,20.83
2019-05-09T13:33:29.741Z,20.58
2019-05-09T13:38:33.783Z,20.22
2019-05-09T13:43:46.047Z,20.08
2019-05-09T13:49:05.185Z,20.16
2019-05-09T13:53:48.444Z,19.71
2019-05-09T13:58:52.024Z,20.10
2019-05-09T14:03:57.592Z,20.36
2019-05-09T14:09:00.693Z,20.45
2019-05-09T14:14:04.661Z,20.61
2019-05-09T14:19:25.956Z,20.09
2019-05-09T14:24:16.637Z,20.69
2019-05-09T14:29:20.610Z,20.07
2019-05-09T14:34:23.636Z,20.42
2019-05-09T14:39:27.662Z,19.83
2019-05-09T14:44:31.273Z,19.85
2019-05-09T14:49:42.372Z,19.66
2019-05-09T14:54:39.890Z,19.87
2019-05-09T14:59:43.321Z,19.73
2019-05-09T15:04:48.579Z,19.82
2019-05-09T15:09:54.088Z,20.07
2019-05-09T15:14:57.813Z,20.20
2019-05-09T15:20:01.346Z,20.10
2019-05-09T15:25:05.309Z,20.08
2019-05-09T15:30:09.382Z,19.61
2019-05-09T15:35:13.018Z,19.54
2019-05-09T15:40:17.665Z,19.35
2019-05-09T15:45:22.445Z,19.63
2019-05-09T15:50:27.838Z,19.65
2019-05-09T15:55:31.038Z,19.60
2019-05-09T16:00:34.514Z,19.51
2019-05-09T16:05:38.615Z,19.61
2019-05-09T16:10:42.091Z,19.54
2019-05-09T16:15:45.544Z,19.60
2019-05-09T16:20:48.981Z,19.26
2019-05-09T16:25:52.412Z,18.83
2019-05-09T16:30:55.840Z,18.72
2019-05-09T16:35:59.269Z,18.56
2019-05-09T16:41:02.753Z,18.40
2019-05-09T16:46:07.567Z,18.44
2019-05-09T16:51:11.218Z,18.42
2019-05-09T16:56:14.779Z,18.30
2019-05-09T17:01:18.803Z,18.00
2019-05-09T17:06:22.481Z,18.17
2019-05-09T17:11:27.792Z,18.23
2019-05-09T17:16:31.154Z,18.06
2019-05-09T17:21:39.154Z,18.05
2019-05-09T17:26:42.663Z,17.80
2019-05-09T17:31:48.571Z,17.80
2019-05-09T17:36:51.227Z,17.78
2019-05-09T17:41:54.777Z,17.39
2019-05-09T17:46:58.309Z,17.32
2019-05-09T17:52:02.636Z,16.99
2019-05-09T17:57:09.315Z,16.78
2019-05-09T18:02:12.795Z,17.02
2019-05-09T18:07:18.040Z,16.77
2019-05-09T18:12:21.420Z,16.76
2019-05-09T18:17:24.928Z,16.57
2019-05-09T18:22:28.361Z,16.49
2019-05-09T18:27:31.791Z,16.33
2019-05-09T18:32:39.750Z,16.26
2019-05-09T18:37:43.313Z,15.97
2019-05-09T18:42:47.566Z,15.82
2019-05-09T18:47:51.151Z,15.64
2019-05-09T18:52:54.662Z,15.39
2019-05-09T18:57:58.073Z,15.14
2019-05-09T19:03:01.598Z,14.97
2019-05-09T19:08:05.173Z,14.82
2019-05-09T19:13:08.597Z,14.67
2019-05-09T19:23:40.398Z,14.31
2019-05-09T19:28:43.846Z,14.15
2019-05-09T19:33:47.334Z,14.10
2019-05-09T19:38:50.764Z,13.92
2019-05-09T19:43:54.181Z,13.77
2019-05-09T19:48:58.111Z,13.55
2019-05-09T19:54:01.534Z,13.47
2019-05-09T19:59:07.809Z,13.44
2019-05-09T20:04:10.355Z,13.30
2019-05-09T20:09:15.428Z,13.19
2019-05-09T20:14:23.537Z,13.20
2019-05-09T20:19:26.979Z,13.19
2019-05-09T20:24:30.445Z,13.12
2019-05-09T20:29:33.867Z,13.12
2019-05-09T20:34:37.333Z,13.08
2019-05-09T20:39:40.935Z,13.07
2019-05-09T20:44:44.720Z,13.05
2019-05-09T20:49:48.346Z,13.11
2019-05-09T20:54:51.935Z,13.14
2019-05-09T20:59:55.531Z,13.20
2019-05-09T21:04:59.131Z,13.22
2019-05-09T21:10:02.744Z,13.23
2019-05-09T21:15:08.528Z,13.23
2019-05-09T21:20:12.358Z,13.34
2019-05-09T21:25:16.018Z,13.37
2019-05-09T21:30:19.772Z,13.39
2019-05-09T21:35:23.183Z,13.38
2019-05-09T21:40:26.613Z,13.44
2019-05-09T21:45:30.135Z,13.42
2019-05-09T21:50:33.558Z,13.39
2019-05-09T21:55:36.992Z,13.36
2019-05-09T22:00:44.951Z,13.36
2019-05-09T22:05:48.388Z,13.38
2019-05-09T22:10:51.817Z,13.39
2019-05-09T22:15:55.351Z,13.32
2019-05-09T22:20:58.882Z,13.34
2019-05-09T22:26:02.307Z,13.34
2019-05-09T22:31:05.752Z,13.23
2019-05-09T22:36:09.206Z,13.25
2019-05-09T22:41:12.607Z,13.22
2019-05-09T22:46:16.044Z,13.29
2019-05-09T22:51:19.711Z,13.28
2019-05-09T22:56:24.649Z,13.15
2019-05-09T23:01:28.142Z,13.10
2019-05-09T23:06:31.676Z,13.13
2019-05-09T23:11:35.116Z,13.04
2019-05-09T23:16:40.441Z,12.97
2019-05-09T23:21:43.922Z,13.01
2019-05-09T23:26:47.379Z,13.06
2019-05-09T23:31:58.050Z,13.02
2019-05-09T23:37:01.549Z,12.89
2019-05-09T23:42:05.085Z,12.75
2019-05-09T23:47:08.546Z,12.79
2019-05-09T23:52:12.077Z,12.78
2019-05-09T23:57:33.525Z,12.74
